createdAt,value
2017-08-24T00:00:41.814Z,0
2017-08-24T00:01:42.118Z,0
2017-08-24T00:02:42.102Z,0
2017-08-24T00:03:42.105Z,0
2017-08-24T00:04:42.100Z,0
2017-08-24T00:05:41.452Z,0
2017-08-24T00:06:42.069Z,0
2017-08-24T00:07:41.145Z,0
2017-08-24T00:08:41.748Z,0
2017-08-24T00:09:42.047Z,0
2017-08-24T00:10:41.724Z,0
2017-08-24T00:11:42.029Z,0
2017-08-24T00:12:41.721Z,0
2017-08-24T00:13:42.378Z,0
2017-08-24T00:14:42.036Z,0
2017-08-24T00:15:42.366Z,0
2017-08-24T00:16:41.711Z,0
2017-08-24T00:17:42.308Z,0
2017-08-24T00:18:41.981Z,0
2017-08-24T00:19:41.346Z,0
2017-08-24T00:20:41.630Z,0
2017-08-24T00:21:41.316Z,0
2017-08-24T00:22:41.943Z,0
2017-08-24T00:23:41.924Z,0
2017-08-24T00:24:41.611Z,0
2017-08-24T00:25:41.907Z,0
2017-08-24T00:26:42.224Z,0
2017-08-24T00:27:41.888Z,0
2017-08-24T00:28:41.262Z,0
2017-08-24T00:29:41.874Z,0
2017-08-24T00:30:41.294Z,0
2017-08-24T00:31:42.168Z,0
2017-08-24T00:32:42.206Z,0
2017-08-24T00:33:41.835Z,0
2017-08-24T00:34:41.540Z,0
2017-08-24T00:35:41.512Z,0
2017-08-24T00:36:41.495Z,0
2017-08-24T00:37:41.797Z,0
2017-08-24T00:38:42.108Z,0
2017-08-24T00:39:41.786Z,0
2017-08-24T00:40:41.217Z,0
2017-08-24T00:41:42.086Z,0
2017-08-24T00:42:41.758Z,0
2017-08-24T00:43:41.444Z,0
2017-08-24T00:44:41.116Z,0
2017-08-24T00:45:41.732Z,0
2017-08-24T00:46:41.730Z,0
2017-08-24T00:47:41.090Z,0
2017-08-24T00:48:42.012Z,0
2017-08-24T00:49:40.760Z,0
2017-08-24T00:50:41.494Z,0
2017-08-24T00:51:41.363Z,0
2017-08-24T00:52:41.363Z,0
2017-08-24T00:53:41.699Z,0
2017-08-24T00:54:41.652Z,0
2017-08-24T00:55:41.022Z,0
2017-08-24T00:56:41.647Z,0
2017-08-24T00:57:41.003Z,0
2017-08-24T00:58:41.617Z,0
2017-08-24T00:59:41.619Z,0
2017-08-24T01:00:41.290Z,0
2017-08-24T01:01:41.288Z,0
2017-08-24T01:02:41.271Z,0
2017-08-24T01:03:41.307Z,0
2017-08-24T01:04:41.573Z,0
2017-08-24T01:05:41.254Z,0
2017-08-24T01:06:41.855Z,0
2017-08-24T01:07:41.229Z,0
2017-08-24T01:08:40.903Z,0
2017-08-24T01:09:41.207Z,0
2017-08-24T01:10:40.912Z,0
2017-08-24T01:11:41.503Z,0
2017-08-24T01:12:41.501Z,0
2017-08-24T01:13:41.182Z,0
2017-08-24T01:14:40.848Z,0
2017-08-24T01:15:41.157Z,0
2017-08-24T01:16:41.468Z,0
2017-08-24T01:17:41.463Z,0
2017-08-24T01:18:41.137Z,0
2017-08-24T01:19:41.124Z,0
2017-08-24T01:20:41.422Z,0
2017-08-24T01:21:40.796Z,0
2017-08-24T01:22:41.089Z,0
2017-08-24T01:23:41.092Z,0
2017-08-24T01:24:41.395Z,0
2017-08-24T01:25:41.462Z,0
2017-08-24T01:26:41.377Z,0
2017-08-24T01:27:41.054Z,0
2017-08-24T01:28:40.420Z,0
2017-08-24T01:29:41.044Z,0
2017-08-24T01:30:41.029Z,0
2017-08-24T01:31:41.652Z,0
2017-08-24T01:32:41.325Z,0
2017-08-24T01:33:41.008Z,0
2017-08-24T01:34:40.991Z,0
2017-08-24T01:35:40.996Z,0
2017-08-24T01:36:40.669Z,0
2017-08-24T01:37:41.003Z,0
2017-08-24T01:38:40.963Z,0
2017-08-24T01:39:41.571Z,0
2017-08-24T01:40:40.938Z,0
2017-08-24T01:41:40.927Z,0
2017-08-24T01:42:41.565Z,0
2017-08-24T01:43:40.907Z,0
2017-08-24T01:44:40.905Z,0
2017-08-24T01:45:41.203Z,0
2017-08-24T01:46:41.202Z,0
2017-08-24T01:47:40.574Z,0
2017-08-24T01:48:40.863Z,0
2017-08-24T01:49:41.480Z,0
2017-08-24T01:50:41.476Z,0
2017-08-24T01:51:40.529Z,0
2017-08-24T01:52:41.450Z,0
2017-08-24T01:53:40.819Z,0
2017-08-24T01:54:40.497Z,0
2017-08-24T01:55:41.199Z,0
2017-08-24T01:56:41.101Z,0
2017-08-24T01:57:40.789Z,0
2017-08-24T01:58:40.783Z,0
2017-08-24T01:59:40.770Z,0
2017-08-24T02:00:40.755Z,0
2017-08-24T02:01:40.803Z,0
2017-08-24T02:02:40.426Z,0
2017-08-24T02:03:41.049Z,0
2017-08-24T02:04:41.375Z,0
2017-08-24T02:05:41.339Z,0
2017-08-24T02:06:40.695Z,0
2017-08-24T02:07:40.067Z,0
2017-08-24T02:08:40.383Z,0
2017-08-24T02:09:40.358Z,0
2017-08-24T02:10:40.669Z,0
2017-08-24T02:11:41.337Z,0
2017-08-24T02:12:40.960Z,0
2017-08-24T02:13:40.632Z,0
2017-08-24T02:14:40.627Z,0
2017-08-24T02:15:40.618Z,0
2017-08-24T02:16:40.609Z,0
2017-08-24T02:17:40.604Z,0
2017-08-24T02:18:40.601Z,0
2017-08-24T02:19:40.261Z,0
2017-08-24T02:20:40.562Z,0
2017-08-24T02:21:40.565Z,0
2017-08-24T02:22:41.180Z,0
2017-08-24T02:23:40.850Z,0
2017-08-24T02:24:40.846Z,0
2017-08-24T02:25:40.839Z,0
2017-08-24T02:26:40.205Z,0
2017-08-24T02:27:40.195Z,0
2017-08-24T02:28:40.178Z,0
2017-08-24T02:29:40.814Z,0
2017-08-24T02:30:40.487Z,0
2017-08-24T02:31:40.831Z,0
2017-08-24T02:32:40.455Z,0
2017-08-24T02:33:40.447Z,0
2017-08-24T02:34:41.062Z,0
2017-08-24T02:35:40.133Z,0
2017-08-24T02:36:40.111Z,0
2017-08-24T02:37:40.745Z,0
2017-08-24T02:38:40.403Z,0
2017-08-24T02:39:41.017Z,0
2017-08-24T02:40:40.389Z,0
2017-08-24T02:41:41.002Z,0
2017-08-24T02:42:40.702Z,0
2017-08-24T02:43:40.993Z,0
2017-08-24T02:44:40.699Z,0
2017-08-24T02:45:40.023Z,0
2017-08-24T02:46:40.017Z,0
2017-08-24T02:47:40.954Z,0
2017-08-24T02:48:40.959Z,0
2017-08-24T02:49:40.323Z,0
2017-08-24T02:50:39.982Z,0
2017-08-24T02:51:40.601Z,0
2017-08-24T02:52:39.962Z,0
2017-08-24T02:53:40.577Z,0
2017-08-24T02:54:40.903Z,0
2017-08-24T02:55:40.566Z,0
2017-08-24T02:56:40.243Z,0
2017-08-24T02:57:40.225Z,0
2017-08-24T02:58:40.220Z,0
2017-08-24T02:59:39.903Z,0
2017-08-24T03:00:39.883Z,0
2017-08-24T03:01:40.195Z,0
2017-08-24T03:02:40.497Z,0
2017-08-24T03:03:40.168Z,0
2017-08-24T03:04:40.169Z,0
2017-08-24T03:05:40.460Z,0
2017-08-24T03:06:40.461Z,0
2017-08-24T03:07:40.135Z,0
2017-08-24T03:08:39.826Z,0
2017-08-24T03:09:40.110Z,0
2017-08-24T03:10:40.151Z,0
2017-08-24T03:11:40.414Z,0
2017-08-24T03:12:40.084Z,0
2017-08-24T03:13:40.394Z,0
2017-08-24T03:14:40.410Z,0
2017-08-24T03:15:40.377Z,0
2017-08-24T03:16:40.672Z,0
2017-08-24T03:17:40.041Z,0
2017-08-24T03:18:40.036Z,0
2017-08-24T03:19:40.038Z,0
2017-08-24T03:20:40.013Z,0
2017-08-24T03:21:39.690Z,0
2017-08-24T03:22:40.623Z,0
2017-08-24T03:23:40.295Z,0
2017-08-24T03:24:40.298Z,0
2017-08-24T03:25:40.288Z,0
2017-08-24T03:26:39.958Z,0
2017-08-24T03:27:40.268Z,0
2017-08-24T03:28:40.273Z,0
2017-08-24T03:29:39.957Z,0
2017-08-24T03:30:40.253Z,0
2017-08-24T03:31:40.257Z,0
2017-08-24T03:32:40.533Z,0
2017-08-24T03:33:39.951Z,0
2017-08-24T03:34:39.884Z,0
2017-08-24T03:35:39.567Z,0
2017-08-24T03:36:39.863Z,0
2017-08-24T03:37:39.550Z,0
2017-08-24T03:38:39.846Z,0
2017-08-24T03:39:40.469Z,0
2017-08-24T03:40:39.832Z,0
2017-08-24T03:41:39.828Z,0
2017-08-24T03:42:39.187Z,0
2017-08-24T03:43:40.480Z,0
2017-08-24T03:44:39.806Z,0
2017-08-24T03:45:39.473Z,0
2017-08-24T03:46:39.781Z,0
2017-08-24T03:47:39.767Z,0
2017-08-24T03:48:39.443Z,0
2017-08-24T03:49:39.434Z,0
2017-08-24T03:50:40.364Z,0
2017-08-24T03:51:39.417Z,0
2017-08-24T03:52:39.716Z,0
2017-08-24T03:53:39.764Z,0
2017-08-24T03:54:40.360Z,0
2017-08-24T03:55:39.709Z,0
2017-08-24T03:56:39.581Z,0
2017-08-24T03:57:39.680Z,0
2017-08-24T03:58:39.677Z,0
2017-08-24T03:59:39.678Z,0
2017-08-24T04:00:39.374Z,0
2017-08-24T04:01:39.323Z,0
2017-08-24T04:02:39.661Z,0
2017-08-24T04:03:39.623Z,0
2017-08-24T04:04:40.229Z,0
2017-08-24T04:05:38.976Z,0
2017-08-24T04:06:39.594Z,0
2017-08-24T04:07:40.216Z,0
2017-08-24T04:08:39.669Z,0
2017-08-24T04:09:39.875Z,0
2017-08-24T04:10:40.183Z,0
2017-08-24T04:11:39.546Z,0
2017-08-24T04:12:39.876Z,0
2017-08-24T04:13:39.214Z,0
2017-08-24T04:14:39.519Z,0
2017-08-24T04:15:39.545Z,0
2017-08-24T04:16:39.810Z,0
2017-08-24T04:17:40.100Z,0
2017-08-24T04:18:39.480Z,0
2017-08-24T04:19:39.796Z,0
2017-08-24T04:20:39.766Z,0
2017-08-24T04:21:39.756Z,0
2017-08-24T04:22:39.126Z,0
2017-08-24T04:23:39.742Z,0
2017-08-24T04:24:40.046Z,0
2017-08-24T04:25:39.735Z,0
2017-08-24T04:26:40.027Z,0
2017-08-24T04:27:39.078Z,0
2017-08-24T04:28:39.378Z,0
2017-08-24T04:29:39.711Z,0
2017-08-24T04:30:39.678Z,0
2017-08-24T04:31:39.695Z,0
2017-08-24T04:32:39.031Z,0
2017-08-24T04:33:39.341Z,0
2017-08-24T04:34:39.944Z,0
2017-08-24T04:35:39.347Z,0
2017-08-24T04:36:39.623Z,0
2017-08-24T04:37:39.610Z,5
2017-08-24T04:38:39.286Z,5
2017-08-24T04:39:39.271Z,5
2017-08-24T04:40:39.583Z,5
2017-08-24T04:41:39.578Z,5
2017-08-24T04:42:39.552Z,5
2017-08-24T04:43:38.611Z,5
2017-08-24T04:44:39.232Z,5
2017-08-24T04:45:39.852Z,5
2017-08-24T04:46:39.512Z,5
2017-08-24T04:47:39.507Z,5
2017-08-24T04:48:39.510Z,5
2017-08-24T04:49:39.482Z,5
2017-08-24T04:50:39.473Z,5
2017-08-24T04:51:39.157Z,5
2017-08-24T04:52:38.832Z,5
2017-08-24T04:53:39.138Z,5
2017-08-24T04:54:39.441Z,5
2017-08-24T04:55:39.740Z,5
2017-08-24T04:56:39.108Z,5
2017-08-24T04:57:38.824Z,5
2017-08-24T04:58:39.397Z,5
2017-08-24T04:59:39.080Z,5
2017-08-24T05:00:39.376Z,5
2017-08-24T05:01:39.371Z,10
2017-08-24T05:02:39.367Z,10
2017-08-24T05:03:39.033Z,10
2017-08-24T05:04:39.650Z,10
2017-08-24T05:05:39.019Z,15
2017-08-24T05:06:38.695Z,15
2017-08-24T05:07:39.310Z,15
2017-08-24T05:08:38.986Z,15
2017-08-24T05:09:38.709Z,15
2017-08-24T05:10:38.968Z,20
2017-08-24T05:11:38.972Z,20
2017-08-24T05:12:38.946Z,20
2017-08-24T05:13:39.576Z,20
2017-08-24T05:14:39.239Z,20
2017-08-24T05:15:38.973Z,20
2017-08-24T05:16:39.216Z,20
2017-08-24T05:17:39.212Z,20
2017-08-24T05:18:39.193Z,15
2017-08-24T05:19:39.191Z,15
2017-08-24T05:20:39.184Z,20
2017-08-24T05:21:39.174Z,25
2017-08-24T05:22:38.842Z,25
2017-08-24T05:23:38.526Z,20
2017-08-24T05:24:38.521Z,20
2017-08-24T05:25:38.809Z,20
2017-08-24T05:26:39.118Z,20
2017-08-24T05:27:39.106Z,20
2017-08-24T05:28:39.102Z,20
2017-08-24T05:29:39.401Z,25
2017-08-24T05:30:39.079Z,25
2017-08-24T05:31:38.763Z,25
2017-08-24T05:32:38.430Z,25
2017-08-24T05:33:39.361Z,25
2017-08-24T05:34:39.039Z,30
2017-08-24T05:35:39.031Z,30
2017-08-24T05:36:39.019Z,30
2017-08-24T05:37:38.999Z,30
2017-08-24T05:38:38.693Z,30
2017-08-24T05:39:38.369Z,30
2017-08-24T05:40:38.975Z,30
2017-08-24T05:41:38.660Z,30
2017-08-24T05:42:38.963Z,35
2017-08-24T05:43:38.955Z,40
2017-08-24T05:44:38.633Z,40
2017-08-24T05:45:38.303Z,40
2017-08-24T05:46:38.603Z,40
2017-08-24T05:47:38.638Z,45
2017-08-24T05:48:38.588Z,50
2017-08-24T05:49:38.886Z,50
2017-08-24T05:50:38.875Z,45
2017-08-24T05:51:38.550Z,45
2017-08-24T05:52:38.226Z,50
2017-08-24T05:53:39.162Z,45
2017-08-24T05:54:38.832Z,45
2017-08-24T05:55:38.821Z,50
2017-08-24T05:56:39.014Z,50
2017-08-24T05:57:38.493Z,50
2017-08-24T05:58:38.477Z,50
2017-08-24T05:59:38.471Z,45
2017-08-24T06:00:38.507Z,40
2017-08-24T06:01:38.773Z,40
2017-08-24T06:02:38.753Z,40
2017-08-24T06:03:38.755Z,40
2017-08-24T06:04:38.738Z,45
2017-08-24T06:05:38.418Z,45
2017-08-24T06:06:38.728Z,45
2017-08-24T06:07:38.726Z,45
2017-08-24T06:08:38.390Z,45
2017-08-24T06:09:38.685Z,45
2017-08-24T06:10:38.676Z,30
2017-08-24T06:11:38.662Z,30
2017-08-24T06:12:38.040Z,30
2017-08-24T06:13:38.644Z,35
2017-08-24T06:14:38.644Z,40
2017-08-24T06:15:38.315Z,45
2017-08-24T06:16:38.628Z,45
2017-08-24T06:17:38.291Z,50
2017-08-24T06:18:37.970Z,60
2017-08-24T06:19:37.962Z,65
2017-08-24T06:20:38.887Z,60
2017-08-24T06:21:38.879Z,60
2017-08-24T06:22:37.937Z,60
2017-08-24T06:23:38.546Z,65
2017-08-24T06:24:37.598Z,65
2017-08-24T06:25:37.635Z,60
2017-08-24T06:26:37.581Z,65
2017-08-24T06:27:38.507Z,75
2017-08-24T06:28:38.816Z,75
2017-08-24T06:29:38.494Z,65
2017-08-24T06:30:38.476Z,65
2017-08-24T06:31:38.152Z,65
2017-08-24T06:32:38.460Z,70
2017-08-24T06:33:38.138Z,75
2017-08-24T06:34:37.813Z,70
2017-08-24T06:35:38.134Z,85
2017-08-24T06:36:38.439Z,85
2017-08-24T06:37:38.096Z,75
2017-08-24T06:38:38.721Z,75
2017-08-24T06:39:38.080Z,85
2017-08-24T06:40:37.443Z,95
2017-08-24T06:41:37.759Z,95
2017-08-24T06:42:38.053Z,110
2017-08-24T06:43:38.724Z,115
2017-08-24T06:44:38.341Z,115
2017-08-24T06:45:38.018Z,110
2017-08-24T06:46:38.387Z,110
2017-08-24T06:47:37.997Z,115
2017-08-24T06:48:37.995Z,100
2017-08-24T06:49:38.358Z,85
2017-08-24T06:50:38.601Z,85
2017-08-24T06:51:38.295Z,85
2017-08-24T06:52:37.955Z,85
2017-08-24T06:53:37.941Z,70
2017-08-24T06:54:37.935Z,75
2017-08-24T06:55:38.239Z,80
2017-08-24T06:56:37.923Z,85
2017-08-24T06:57:38.217Z,80
2017-08-24T06:58:37.900Z,75
2017-08-24T06:59:37.267Z,65
2017-08-24T07:00:38.227Z,50
2017-08-24T07:01:37.867Z,45
2017-08-24T07:02:38.178Z,40
2017-08-24T07:03:38.179Z,40
2017-08-24T07:04:38.153Z,45
2017-08-24T07:05:37.839Z,45
2017-08-24T07:06:38.132Z,60
2017-08-24T07:07:37.498Z,75
2017-08-24T07:08:37.489Z,70
2017-08-24T07:09:37.800Z,60
2017-08-24T07:10:37.470Z,65
2017-08-24T07:11:37.779Z,55
2017-08-24T07:12:37.443Z,40
2017-08-24T07:13:37.754Z,45
2017-08-24T07:14:37.754Z,45
2017-08-24T07:15:38.355Z,50
2017-08-24T07:16:38.033Z,45
2017-08-24T07:17:38.022Z,45
2017-08-24T07:18:37.699Z,50
2017-08-24T07:19:38.014Z,70
2017-08-24T07:20:37.375Z,80
2017-08-24T07:21:37.993Z,70
2017-08-24T07:22:37.355Z,75
2017-08-24T07:23:37.969Z,80
2017-08-24T07:24:37.637Z,85
2017-08-24T07:25:38.278Z,90
2017-08-24T07:26:37.373Z,110
2017-08-24T07:27:37.628Z,125
2017-08-24T07:28:37.298Z,135
2017-08-24T07:29:37.627Z,140
2017-08-24T07:30:38.235Z,145
2017-08-24T07:31:37.261Z,130
2017-08-24T07:32:37.879Z,135
2017-08-24T07:33:37.246Z,165
2017-08-24T07:34:37.552Z,165
2017-08-24T07:35:37.864Z,185
2017-08-24T07:36:38.158Z,200
2017-08-24T07:37:37.528Z,205
2017-08-24T07:38:37.520Z,175
2017-08-24T07:39:37.512Z,140
2017-08-24T07:40:37.810Z,100
2017-08-24T07:41:37.174Z,90
2017-08-24T07:42:37.786Z,90
2017-08-24T07:43:36.843Z,90
2017-08-24T07:44:37.460Z,85
2017-08-24T07:45:38.078Z,75
2017-08-24T07:46:37.765Z,60
2017-08-24T07:47:37.752Z,65
2017-08-24T07:48:37.113Z,85
2017-08-24T07:49:37.097Z,90
2017-08-24T07:50:37.090Z,75
2017-08-24T07:51:37.390Z,80
2017-08-24T07:52:37.721Z,110
2017-08-24T07:53:38.003Z,125
2017-08-24T07:54:37.991Z,125
2017-08-24T07:55:37.356Z,140
2017-08-24T07:56:38.181Z,135
2017-08-24T07:57:37.353Z,140
2017-08-24T07:58:37.336Z,150
2017-08-24T07:59:37.946Z,170
2017-08-24T08:00:37.631Z,180
2017-08-24T08:01:36.985Z,195
2017-08-24T08:02:37.920Z,210
2017-08-24T08:03:37.316Z,210
2017-08-24T08:04:37.587Z,230
2017-08-24T08:05:37.586Z,265
2017-08-24T08:06:36.950Z,210
2017-08-24T08:07:36.991Z,175
2017-08-24T08:08:37.555Z,180
2017-08-24T08:09:37.557Z,185
2017-08-24T08:10:37.530Z,260
2017-08-24T08:11:36.905Z,240
2017-08-24T08:12:37.208Z,235
2017-08-24T08:13:37.508Z,220
2017-08-24T08:14:37.191Z,165
2017-08-24T08:15:37.493Z,150
2017-08-24T08:16:37.845Z,135
2017-08-24T08:17:37.480Z,135
2017-08-24T08:18:37.790Z,135
2017-08-24T08:19:37.141Z,140
2017-08-24T08:20:37.145Z,145
2017-08-24T08:21:36.821Z,180
2017-08-24T08:22:37.740Z,195
2017-08-24T08:23:37.127Z,185
2017-08-24T08:24:37.098Z,185
2017-08-24T08:25:36.775Z,135
2017-08-24T08:26:37.710Z,105
2017-08-24T08:27:37.385Z,115
2017-08-24T08:28:36.786Z,155
2017-08-24T08:29:37.054Z,185
2017-08-24T08:30:37.380Z,205
2017-08-24T08:31:37.386Z,245
2017-08-24T08:32:37.034Z,280
2017-08-24T08:33:37.032Z,280
2017-08-24T08:34:37.335Z,190
2017-08-24T08:35:37.318Z,190
2017-08-24T08:36:37.004Z,190
2017-08-24T08:37:37.615Z,160
2017-08-24T08:38:37.302Z,140
2017-08-24T08:39:37.306Z,110
2017-08-24T08:40:36.659Z,80
2017-08-24T08:41:37.583Z,85
2017-08-24T08:42:36.647Z,110
2017-08-24T08:43:36.601Z,125
2017-08-24T08:44:36.772Z,125
2017-08-24T08:45:37.232Z,135
2017-08-24T08:46:36.251Z,145
2017-08-24T08:47:36.889Z,170
2017-08-24T08:48:36.877Z,185
2017-08-24T08:49:36.877Z,210
2017-08-24T08:50:36.858Z,265
2017-08-24T08:51:36.534Z,300
2017-08-24T08:52:37.182Z,325
2017-08-24T08:53:36.839Z,320
2017-08-24T08:54:37.461Z,290
2017-08-24T08:55:36.509Z,310
2017-08-24T08:56:36.815Z,315
2017-08-24T08:57:37.452Z,260
2017-08-24T08:58:36.524Z,205
2017-08-24T08:59:36.785Z,245
2017-08-24T09:00:37.100Z,285
2017-08-24T09:01:36.131Z,245
2017-08-24T09:02:36.446Z,210
2017-08-24T09:03:36.433Z,260
2017-08-24T09:04:37.071Z,355
2017-08-24T09:05:37.061Z,395
2017-08-24T09:06:36.730Z,395
2017-08-24T09:07:36.405Z,270
2017-08-24T09:08:36.716Z,255
2017-08-24T09:09:36.433Z,320
2017-08-24T09:10:37.026Z,330
2017-08-24T09:11:36.688Z,260
2017-08-24T09:12:36.047Z,210
2017-08-24T09:13:36.457Z,250
2017-08-24T09:14:36.353Z,280
2017-08-24T09:15:36.664Z,300
2017-08-24T09:16:36.976Z,330
2017-08-24T09:17:36.986Z,335
2017-08-24T09:18:36.647Z,355
2017-08-24T09:19:36.970Z,360
2017-08-24T09:20:36.950Z,405
2017-08-24T09:21:36.302Z,415
2017-08-24T09:22:37.250Z,335
2017-08-24T09:23:36.288Z,335
2017-08-24T09:24:36.287Z,315
2017-08-24T09:25:36.592Z,335
2017-08-24T09:26:36.585Z,385
2017-08-24T09:27:36.258Z,410
2017-08-24T09:28:36.616Z,410
2017-08-24T09:29:36.245Z,375
2017-08-24T09:30:36.554Z,355
2017-08-24T09:31:36.232Z,355
2017-08-24T09:32:36.535Z,335
2017-08-24T09:33:36.851Z,340
2017-08-24T09:34:36.203Z,375
2017-08-24T09:35:36.836Z,390
2017-08-24T09:36:36.521Z,340
2017-08-24T09:37:36.517Z,265
2017-08-24T09:38:37.152Z,205
2017-08-24T09:39:36.498Z,190
2017-08-24T09:40:36.809Z,195
2017-08-24T09:41:36.159Z,200
2017-08-24T09:42:36.170Z,190
2017-08-24T09:43:36.569Z,135
2017-08-24T09:44:36.464Z,100
2017-08-24T09:45:36.128Z,85
2017-08-24T09:46:36.461Z,75
2017-08-24T09:47:35.795Z,80
2017-08-24T09:48:36.522Z,100
2017-08-24T09:49:36.424Z,105
2017-08-24T09:50:36.091Z,130
2017-08-24T09:51:36.089Z,170
2017-08-24T09:52:36.404Z,220
2017-08-24T09:53:36.766Z,225
2017-08-24T09:54:36.384Z,165
2017-08-24T09:55:36.377Z,125
2017-08-24T09:56:36.568Z,110
2017-08-24T09:57:36.366Z,110
2017-08-24T09:58:37.055Z,125
2017-08-24T09:59:36.351Z,140
2017-08-24T10:00:36.666Z,150
2017-08-24T10:01:35.697Z,130
2017-08-24T10:02:36.649Z,115
2017-08-24T10:03:35.695Z,130
2017-08-24T10:04:36.629Z,140
2017-08-24T10:05:36.301Z,165
2017-08-24T10:06:35.975Z,170
2017-08-24T10:07:36.291Z,155
2017-08-24T10:08:35.962Z,110
2017-08-24T10:09:35.946Z,75
2017-08-24T10:10:36.259Z,60
2017-08-24T10:11:35.983Z,55
2017-08-24T10:12:36.245Z,55
2017-08-24T10:13:36.234Z,65
2017-08-24T10:14:36.227Z,80
2017-08-24T10:15:35.901Z,100
2017-08-24T10:16:36.212Z,125
2017-08-24T10:17:36.204Z,160
2017-08-24T10:18:35.878Z,230
2017-08-24T10:19:35.869Z,290
2017-08-24T10:20:36.508Z,310
2017-08-24T10:21:36.177Z,300
2017-08-24T10:22:36.167Z,320
2017-08-24T10:23:36.475Z,330
2017-08-24T10:24:36.468Z,310
2017-08-24T10:25:36.465Z,290
2017-08-24T10:26:36.458Z,310
2017-08-24T10:27:36.775Z,290
2017-08-24T10:28:36.697Z,255
2017-08-24T10:29:36.924Z,260
2017-08-24T10:30:35.493Z,270
2017-08-24T10:31:35.925Z,300
2017-08-24T10:32:36.415Z,325
2017-08-24T10:33:35.764Z,315
2017-08-24T10:34:36.398Z,275
2017-08-24T10:35:36.060Z,260
2017-08-24T10:36:36.064Z,300
2017-08-24T10:37:36.062Z,335
2017-08-24T10:38:36.687Z,265
2017-08-24T10:39:36.091Z,235
2017-08-24T10:40:36.029Z,240
2017-08-24T10:41:36.363Z,240
2017-08-24T10:42:36.334Z,245
2017-08-24T10:43:35.687Z,235
2017-08-24T10:44:36.000Z,225
2017-08-24T10:45:36.370Z,235
2017-08-24T10:46:36.366Z,260
2017-08-24T10:47:35.981Z,275
2017-08-24T10:48:35.973Z,260
2017-08-24T10:49:36.295Z,255
2017-08-24T10:50:36.030Z,235
2017-08-24T10:51:36.277Z,230
2017-08-24T10:52:36.268Z,245
2017-08-24T10:53:36.269Z,245
2017-08-24T10:54:35.613Z,235
2017-08-24T10:55:36.264Z,225
2017-08-24T10:56:36.244Z,195
2017-08-24T10:57:35.601Z,175
2017-08-24T10:58:35.582Z,170
2017-08-24T10:59:35.577Z,180
2017-08-24T11:00:36.215Z,180
2017-08-24T11:01:36.223Z,170
2017-08-24T11:02:36.198Z,165
2017-08-24T11:03:36.193Z,160
2017-08-24T11:04:35.606Z,145
2017-08-24T11:05:35.856Z,155
2017-08-24T11:06:35.851Z,195
2017-08-24T11:07:35.886Z,245
2017-08-24T11:08:35.522Z,255
2017-08-24T11:09:36.155Z,265
2017-08-24T11:10:35.827Z,295
2017-08-24T11:11:35.815Z,320
2017-08-24T11:12:35.491Z,320
2017-08-24T11:13:36.145Z,310
2017-08-24T11:14:36.436Z,320
2017-08-24T11:15:35.785Z,360
2017-08-24T11:16:35.821Z,380
2017-08-24T11:17:35.125Z,385
2017-08-24T11:18:35.764Z,380
2017-08-24T11:19:35.433Z,350
2017-08-24T11:20:35.751Z,325
2017-08-24T11:21:35.751Z,330
2017-08-24T11:22:36.058Z,320
2017-08-24T11:23:35.765Z,310
2017-08-24T11:24:35.723Z,285
2017-08-24T11:25:36.039Z,250
2017-08-24T11:26:36.059Z,245
2017-08-24T11:27:35.387Z,250
2017-08-24T11:28:35.694Z,275
2017-08-24T11:29:35.698Z,290
2017-08-24T11:30:35.364Z,340
2017-08-24T11:31:35.676Z,395
2017-08-24T11:32:35.676Z,405
2017-08-24T11:33:35.020Z,430
2017-08-24T11:34:35.658Z,415
2017-08-24T11:35:35.333Z,420
2017-08-24T11:36:35.650Z,780
2017-08-24T11:37:35.002Z,700
2017-08-24T11:38:35.628Z,465
2017-08-24T11:39:35.628Z,615
2017-08-24T11:40:35.624Z,400
2017-08-24T11:41:35.614Z,375
2017-08-24T11:42:35.932Z,355
2017-08-24T11:43:36.249Z,340
2017-08-24T11:44:35.288Z,330
2017-08-24T11:45:35.629Z,325
2017-08-24T11:46:36.061Z,320
2017-08-24T11:47:35.265Z,350
2017-08-24T11:48:34.932Z,360
2017-08-24T11:49:35.251Z,345
2017-08-24T11:50:36.198Z,345
2017-08-24T11:51:35.566Z,405
2017-08-24T11:52:35.237Z,340
2017-08-24T11:53:35.221Z,305
2017-08-24T11:54:35.873Z,525
2017-08-24T11:55:35.549Z,550
2017-08-24T11:56:35.536Z,325
2017-08-24T11:57:35.524Z,315
2017-08-24T11:58:35.204Z,270
2017-08-24T11:59:35.201Z,295
2017-08-24T12:00:35.242Z,325
2017-08-24T12:01:35.509Z,360
2017-08-24T12:02:35.177Z,460
2017-08-24T12:03:35.834Z,610
2017-08-24T12:04:35.490Z,615
2017-08-24T12:05:35.179Z,655
2017-08-24T12:06:35.831Z,515
2017-08-24T12:07:35.786Z,460
2017-08-24T12:08:35.465Z,530
2017-08-24T12:09:35.457Z,1085
2017-08-24T12:10:35.458Z,550
2017-08-24T12:11:35.450Z,1035
2017-08-24T12:12:35.127Z,1530
2017-08-24T12:13:35.117Z,1495
2017-08-24T12:14:35.787Z,1565
2017-08-24T12:15:35.108Z,1695
2017-08-24T12:16:35.749Z,1675
2017-08-24T12:17:35.431Z,1580
2017-08-24T12:18:34.825Z,790
2017-08-24T12:19:35.741Z,1150
2017-08-24T12:20:35.736Z,1535
2017-08-24T12:21:35.092Z,1685
2017-08-24T12:22:34.767Z,1620
2017-08-24T12:23:36.058Z,1545
2017-08-24T12:24:35.409Z,1535
2017-08-24T12:25:35.760Z,1600
2017-08-24T12:26:35.126Z,1635
2017-08-24T12:27:35.729Z,1690
2017-08-24T12:28:35.080Z,1625
2017-08-24T12:29:35.738Z,1630
2017-08-24T12:30:35.397Z,1565
2017-08-24T12:31:36.043Z,1575
2017-08-24T12:32:35.410Z,1585
2017-08-24T12:33:35.404Z,1470
2017-08-24T12:34:35.082Z,1530
2017-08-24T12:35:35.405Z,1510
2017-08-24T12:36:35.082Z,1550
2017-08-24T12:37:35.415Z,1440
2017-08-24T12:38:35.415Z,1435
2017-08-24T12:39:34.766Z,540
2017-08-24T12:40:35.092Z,635
2017-08-24T12:41:35.423Z,1265
2017-08-24T12:42:35.416Z,1235
2017-08-24T12:43:35.755Z,515
2017-08-24T12:44:35.106Z,1260
2017-08-24T12:45:35.750Z,1360
2017-08-24T12:46:35.426Z,1280
2017-08-24T12:47:35.748Z,510
2017-08-24T12:48:35.426Z,595
2017-08-24T12:49:35.755Z,1470
2017-08-24T12:50:35.766Z,1395
2017-08-24T12:51:35.434Z,1415
2017-08-24T12:52:35.440Z,1545
2017-08-24T12:53:35.770Z,1550
2017-08-24T12:54:35.477Z,1560
2017-08-24T12:55:35.436Z,1545
2017-08-24T12:56:35.442Z,1510
2017-08-24T12:57:34.803Z,520
2017-08-24T12:58:35.780Z,530
2017-08-24T12:59:35.129Z,1410
2017-08-24T13:00:35.499Z,1480
2017-08-24T13:01:35.786Z,1460
2017-08-24T13:02:35.461Z,1405
2017-08-24T13:03:35.458Z,1545
2017-08-24T13:04:35.478Z,1535
2017-08-24T13:05:35.149Z,1535
2017-08-24T13:06:35.156Z,1480
2017-08-24T13:07:35.482Z,1425
2017-08-24T13:08:35.818Z,1295
2017-08-24T13:09:35.154Z,1240
2017-08-24T13:10:35.797Z,1205
2017-08-24T13:11:34.841Z,850
2017-08-24T13:12:35.164Z,525
2017-08-24T13:13:35.185Z,505
2017-08-24T13:14:36.169Z,440
2017-08-24T13:15:35.814Z,355
2017-08-24T13:16:35.494Z,330
2017-08-24T13:17:35.821Z,330
2017-08-24T13:18:35.497Z,345
2017-08-24T13:19:35.511Z,330
2017-08-24T13:20:35.507Z,320
2017-08-24T13:21:34.857Z,310
2017-08-24T13:22:35.821Z,340
2017-08-24T13:23:35.834Z,1010
2017-08-24T13:24:35.832Z,635
2017-08-24T13:25:35.833Z,475
2017-08-24T13:26:35.188Z,425
2017-08-24T13:27:35.187Z,900
2017-08-24T13:28:35.829Z,385
2017-08-24T13:29:35.845Z,385
2017-08-24T13:30:35.500Z,440
2017-08-24T13:31:35.190Z,695
2017-08-24T13:32:35.512Z,1155
2017-08-24T13:33:35.186Z,1205
2017-08-24T13:34:35.503Z,1235
2017-08-24T13:35:35.878Z,1260
2017-08-24T13:36:35.178Z,1260
2017-08-24T13:37:35.504Z,600
2017-08-24T13:38:35.505Z,300
2017-08-24T13:39:35.514Z,265
2017-08-24T13:40:35.497Z,250
2017-08-24T13:41:35.816Z,255
2017-08-24T13:42:35.529Z,535
2017-08-24T13:43:35.189Z,410
2017-08-24T13:44:35.844Z,675
2017-08-24T13:45:35.817Z,1085
2017-08-24T13:46:35.175Z,1135
2017-08-24T13:47:35.497Z,475
2017-08-24T13:48:35.493Z,390
2017-08-24T13:49:35.820Z,335
2017-08-24T13:50:35.505Z,350
2017-08-24T13:51:34.849Z,340
2017-08-24T13:52:35.487Z,395
2017-08-24T13:53:35.807Z,790
2017-08-24T13:54:35.810Z,470
2017-08-24T13:55:35.824Z,420
2017-08-24T13:56:35.926Z,400
2017-08-24T13:57:35.470Z,390
2017-08-24T13:58:35.802Z,395
2017-08-24T13:59:34.838Z,465
2017-08-24T14:00:35.156Z,905
2017-08-24T14:01:35.152Z,780
2017-08-24T14:02:35.795Z,1010
2017-08-24T14:03:35.150Z,850
2017-08-24T14:04:35.471Z,865
2017-08-24T14:05:35.825Z,855
2017-08-24T14:06:35.784Z,960
2017-08-24T14:07:35.476Z,990
2017-08-24T14:08:35.148Z,990
2017-08-24T14:09:35.461Z,840
2017-08-24T14:10:35.463Z,850